sensor_id;sensor_type;location;lat;lon;timestamp;temperature;humidity
27266;DHT22;14766;51.380;13.762;2023-10-31T00:00:21;16.70;69.10
27266;DHT22;14766;51.380;13.762;2023-10-31T00:02:48;16.70;69.10
27266;DHT22;14766;51.380;13.762;2023-10-31T00:05:15;16.70;69.20
27266;DHT22;14766;51.380;13.762;2023-10-31T00:07:45;16.70;69.20
27266;DHT22;14766;51.380;13.762;2023-10-31T00:10:12;16.70;69.20
27266;DHT22;14766;51.380;13.762;2023-10-31T00:12:40;16.60;69.00
27266;DHT22;14766;51.380;13.762;2023-10-31T00:15:07;16.60;69.20
27266;DHT22;14766;51.380;13.762;2023-10-31T00:17:34;16.60;69.30
27266;DHT22;14766;51.380;13.762;2023-10-31T00:20:02;16.60;69.40
27266;DHT22;14766;51.380;13.762;2023-10-31T00:22:31;16.60;69.50
27266;DHT22;14766;51.380;13.762;2023-10-31T00:24:58;16.60;69.50
27266;DHT22;14766;51.380;13.762;2023-10-31T00:27:25;16.60;69.50
27266;DHT22;14766;51.380;13.762;2023-10-31T00:29:52;16.60;69.60
27266;DHT22;14766;51.380;13.762;2023-10-31T00:32:19;16.60;69.70
27266;DHT22;14766;51.380;13.762;2023-10-31T00:34:47;16.60;69.80
27266;DHT22;14766;51.380;13.762;2023-10-31T00:37:14;16.60;69.80
27266;DHT22;14766;51.380;13.762;2023-10-31T00:39:41;16.60;69.90
27266;DHT22;14766;51.380;13.762;2023-10-31T00:42:08;16.60;70.10
27266;DHT22;14766;51.380;13.762;2023-10-31T00:44:35;16.60;70.10
27266;DHT22;14766;51.380;13.762;2023-10-31T00:47:02;16.50;70.00
27266;DHT22;14766;51.380;13.762;2023-10-31T00:49:31;16.50;70.10
27266;DHT22;14766;51.380;13.762;2023-10-31T00:51:58;16.50;70.00
27266;DHT22;14766;51.380;13.762;2023-10-31T00:54:25;16.50;70.30
27266;DHT22;14766;51.380;13.762;2023-10-31T00:56:52;16.50;70.40
27266;DHT22;14766;51.380;13.762;2023-10-31T00:59:19;16.50;71.30
27266;DHT22;14766;51.380;13.762;2023-10-31T01:01:46;16.50;70.50
27266;DHT22;14766;51.380;13.762;2023-10-31T01:04:13;16.50;70.50
27266;DHT22;14766;51.380;13.762;2023-10-31T01:06:41;16.50;70.50
27266;DHT22;14766;51.380;13.762;2023-10-31T01:09:12;16.50;70.60
27266;DHT22;14766;51.380;13.762;2023-10-31T01:11:40;16.50;70.60
27266;DHT22;14766;51.380;13.762;2023-10-31T01:14:06;16.50;70.60
27266;DHT22;14766;51.380;13.762;2023-10-31T01:16:34;16.50;70.60
27266;DHT22;14766;51.380;13.762;2023-10-31T01:19:02;16.50;70.60
27266;DHT22;14766;51.380;13.762;2023-10-31T01:21:30;16.50;70.60
27266;DHT22;14766;51.380;13.762;2023-10-31T01:23:58;16.50;70.70
27266;DHT22;14766;51.380;13.762;2023-10-31T01:26:25;16.50;70.80
27266;DHT22;14766;51.380;13.762;2023-10-31T01:28:53;16.50;70.70
27266;DHT22;14766;51.380;13.762;2023-10-31T01:31:20;16.50;70.70
27266;DHT22;14766;51.380;13.762;2023-10-31T01:33:47;16.50;70.80
27266;DHT22;14766;51.380;13.762;2023-10-31T01:36:14;16.50;70.70
27266;DHT22;14766;51.380;13.762;2023-10-31T01:38:41;16.50;70.80
27266;DHT22;14766;51.380;13.762;2023-10-31T01:41:08;16.50;70.80
27266;DHT22;14766;51.380;13.762;2023-10-31T01:43:37;16.50;70.80
27266;DHT22;14766;51.380;13.762;2023-10-31T01:46:04;16.50;70.90
27266;DHT22;14766;51.380;13.762;2023-10-31T01:48:33;16.50;70.90
27266;DHT22;14766;51.380;13.762;2023-10-31T01:51:03;16.50;70.90
27266;DHT22;14766;51.380;13.762;2023-10-31T01:53:34;16.50;70.90
27266;DHT22;14766;51.380;13.762;2023-10-31T01:56:03;16.50;71.00
27266;DHT22;14766;51.380;13.762;2023-10-31T01:58:34;16.50;71.00
27266;DHT22;14766;51.380;13.762;2023-10-31T02:01:03;16.50;71.10
27266;DHT22;14766;51.380;13.762;2023-10-31T02:03:31;16.60;71.20
27266;DHT22;14766;51.380;13.762;2023-10-31T02:06:00;16.60;71.20
27266;DHT22;14766;51.380;13.762;2023-10-31T02:08:27;16.50;71.20
27266;DHT22;14766;51.380;13.762;2023-10-31T02:10:54;16.50;71.20
27266;DHT22;14766;51.380;13.762;2023-10-31T02:13:21;16.50;71.30
27266;DHT22;14766;51.380;13.762;2023-10-31T02:15:49;16.50;71.30
27266;DHT22;14766;51.380;13.762;2023-10-31T02:18:16;16.50;71.70
27266;DHT22;14766;51.380;13.762;2023-10-31T02:20:44;16.50;71.30
27266;DHT22;14766;51.380;13.762;2023-10-31T02:23:11;16.50;71.40
27266;DHT22;14766;51.380;13.762;2023-10-31T02:25:38;16.50;71.50
27266;DHT22;14766;51.380;13.762;2023-10-31T02:28:05;16.50;71.70
27266;DHT22;14766;51.380;13.762;2023-10-31T02:30:34;16.50;72.10
27266;DHT22;14766;51.380;13.762;2023-10-31T02:33:02;16.50;73.50
27266;DHT22;14766;51.380;13.762;2023-10-31T02:35:29;16.50;75.00
27266;DHT22;14766;51.380;13.762;2023-10-31T02:37:56;16.50;75.90
27266;DHT22;14766;51.380;13.762;2023-10-31T02:40:24;16.50;75.80
27266;DHT22;14766;51.380;13.762;2023-10-31T02:42:54;16.50;76.40
27266;DHT22;14766;51.380;13.762;2023-10-31T02:45:22;16.50;76.30
27266;DHT22;14766;51.380;13.762;2023-10-31T02:47:49;16.50;76.30
27266;DHT22;14766;51.380;13.762;2023-10-31T02:50:17;16.50;76.60
27266;DHT22;14766;51.380;13.762;2023-10-31T02:52:45;16.50;76.50
27266;DHT22;14766;51.380;13.762;2023-10-31T02:55:18;16.50;76.70
27266;DHT22;14766;51.380;13.762;2023-10-31T02:57:45;16.50;76.70
27266;DHT22;14766;51.380;13.762;2023-10-31T03:00:12;16.50;76.70
27266;DHT22;14766;51.380;13.762;2023-10-31T03:02:39;16.50;76.70
27266;DHT22;14766;51.380;13.762;2023-10-31T03:05:07;16.50;76.70
27266;DHT22;14766;51.380;13.762;2023-10-31T03:07:36;16.50;76.80
27266;DHT22;14766;51.380;13.762;2023-10-31T03:10:05;16.50;76.80
27266;DHT22;14766;51.380;13.762;2023-10-31T03:12:33;16.40;76.90
27266;DHT22;14766;51.380;13.762;2023-10-31T03:15:01;16.40;77.00
27266;DHT22;14766;51.380;13.762;2023-10-31T03:17:30;16.40;76.90
27266;DHT22;14766;51.380;13.762;2023-10-31T03:19:57;16.40;76.90
27266;DHT22;14766;51.380;13.762;2023-10-31T03:22:27;16.30;76.80
27266;DHT22;14766;51.380;13.762;2023-10-31T03:25:00;16.40;77.00
27266;DHT22;14766;51.380;13.762;2023-10-31T03:27:29;16.30;76.90
27266;DHT22;14766;51.380;13.762;2023-10-31T03:29:58;16.30;77.10
27266;DHT22;14766;51.380;13.762;2023-10-31T03:32:26;16.30;76.80
27266;DHT22;14766;51.380;13.762;2023-10-31T03:34:53;16.30;77.00
27266;DHT22;14766;51.380;13.762;2023-10-31T03:37:20;16.30;77.20
27266;DHT22;14766;51.380;13.762;2023-10-31T03:39:48;16.30;77.30
27266;DHT22;14766;51.380;13.762;2023-10-31T03:42:15;16.30;77.20
27266;DHT22;14766;51.380;13.762;2023-10-31T03:44:43;16.30;77.40
27266;DHT22;14766;51.380;13.762;2023-10-31T03:47:13;16.30;77.50
27266;DHT22;14766;51.380;13.762;2023-10-31T03:49:41;16.20;77.40
27266;DHT22;14766;51.380;13.762;2023-10-31T03:52:10;16.20;77.60
27266;DHT22;14766;51.380;13.762;2023-10-31T03:54:38;16.20;77.60
27266;DHT22;14766;51.380;13.762;2023-10-31T03:57:06;16.20;77.60
27266;DHT22;14766;51.380;13.762;2023-10-31T03:59:33;16.20;77.50
27266;DHT22;14766;51.380;13.762;2023-10-31T04:02:01;16.20;77.60
27266;DHT22;14766;51.380;13.762;2023-10-31T04:04:28;16.20;77.70
27266;DHT22;14766;51.380;13.762;2023-10-31T04:06:55;16.20;77.80
27266;DHT22;14766;51.380;13.762;2023-10-31T04:09:25;16.20;77.80
27266;DHT22;14766;51.380;13.762;2023-10-31T04:11:53;16.20;77.80
27266;DHT22;14766;51.380;13.762;2023-10-31T04:14:21;16.20;77.80
27266;DHT22;14766;51.380;13.762;2023-10-31T04:16:48;16.20;77.70
27266;DHT22;14766;51.380;13.762;2023-10-31T04:19:15;16.20;77.90
27266;DHT22;14766;51.380;13.762;2023-10-31T04:21:43;16.20;77.70
27266;DHT22;14766;51.380;13.762;2023-10-31T04:24:10;16.20;77.70
27266;DHT22;14766;51.380;13.762;2023-10-31T04:26:37;16.20;77.90
27266;DHT22;14766;51.380;13.762;2023-10-31T04:29:05;16.20;77.90
27266;DHT22;14766;51.380;13.762;2023-10-31T04:31:32;16.20;78.00
27266;DHT22;14766;51.380;13.762;2023-10-31T04:34:10;16.10;78.00
27266;DHT22;14766;51.380;13.762;2023-10-31T04:36:37;16.10;77.90
27266;DHT22;14766;51.380;13.762;2023-10-31T04:39:04;16.10;78.10
27266;DHT22;14766;51.380;13.762;2023-10-31T04:41:31;16.10;78.10
27266;DHT22;14766;51.380;13.762;2023-10-31T04:43:58;16.10;78.10
27266;DHT22;14766;51.380;13.762;2023-10-31T04:46:25;16.00;78.10
27266;DHT22;14766;51.380;13.762;2023-10-31T04:48:54;16.10;77.90
27266;DHT22;14766;51.380;13.762;2023-10-31T04:51:21;16.10;78.10
27266;DHT22;14766;51.380;13.762;2023-10-31T04:53:48;16.10;78.00
27266;DHT22;14766;51.380;13.762;2023-10-31T04:56:16;16.00;77.90
27266;DHT22;14766;51.380;13.762;2023-10-31T04:58:44;16.00;77.80
27266;DHT22;14766;51.380;13.762;2023-10-31T05:01:12;16.00;77.90
27266;DHT22;14766;51.380;13.762;2023-10-31T05:03:40;16.00;78.10
27266;DHT22;14766;51.380;13.762;2023-10-31T05:06:07;16.00;77.90
27266;DHT22;14766;51.380;13.762;2023-10-31T05:08:34;16.00;77.90
27266;DHT22;14766;51.380;13.762;2023-10-31T05:11:01;16.00;77.90
27266;DHT22;14766;51.380;13.762;2023-10-31T05:13:29;16.00;78.00
27266;DHT22;14766;51.380;13.762;2023-10-31T05:15:56;16.00;78.10
27266;DHT22;14766;51.380;13.762;2023-10-31T05:18:23;16.00;78.20
27266;DHT22;14766;51.380;13.762;2023-10-31T05:20:50;16.00;78.20
27266;DHT22;14766;51.380;13.762;2023-10-31T05:23:17;16.00;78.20
27266;DHT22;14766;51.380;13.762;2023-10-31T05:25:45;15.90;78.30
27266;DHT22;14766;51.380;13.762;2023-10-31T05:28:12;15.90;78.40
27266;DHT22;14766;51.380;13.762;2023-10-31T05:30:39;15.90;78.40
27266;DHT22;14766;51.380;13.762;2023-10-31T05:33:06;15.90;78.30
27266;DHT22;14766;51.380;13.762;2023-10-31T05:35:34;15.90;78.40
27266;DHT22;14766;51.380;13.762;2023-10-31T05:38:01;15.90;78.20
27266;DHT22;14766;51.380;13.762;2023-10-31T05:40:28;15.90;78.20
27266;DHT22;14766;51.380;13.762;2023-10-31T05:42:56;15.90;78.10
27266;DHT22;14766;51.380;13.762;2023-10-31T05:45:24;15.90;78.00
27266;DHT22;14766;51.380;13.762;2023-10-31T05:47:51;15.90;78.00
27266;DHT22;14766;51.380;13.762;2023-10-31T05:50:18;15.90;78.00
27266;DHT22;14766;51.380;13.762;2023-10-31T05:52:45;15.90;77.90
27266;DHT22;14766;51.380;13.762;2023-10-31T05:55:12;15.90;77.80
27266;DHT22;14766;51.380;13.762;2023-10-31T05:57:44;15.90;77.80
27266;DHT22;14766;51.380;13.762;2023-10-31T06:00:13;15.90;77.80
27266;DHT22;14766;51.380;13.762;2023-10-31T06:02:40;15.90;77.90
27266;DHT22;14766;51.380;13.762;2023-10-31T06:05:08;15.90;77.80
27266;DHT22;14766;51.380;13.762;2023-10-31T06:07:35;15.90;77.70
27266;DHT22;14766;51.380;13.762;2023-10-31T06:10:02;15.90;77.70
27266;DHT22;14766;51.380;13.762;2023-10-31T06:12:30;15.90;77.60
27266;DHT22;14766;51.380;13.762;2023-10-31T06:14:57;15.90;77.50
27266;DHT22;14766;51.380;13.762;2023-10-31T06:17:24;15.90;77.50
27266;DHT22;14766;51.380;13.762;2023-10-31T06:19:53;15.90;77.20
27266;DHT22;14766;51.380;13.762;2023-10-31T06:22:20;15.90;77.00
27266;DHT22;14766;51.380;13.762;2023-10-31T06:24:47;15.90;76.90
27266;DHT22;14766;51.380;13.762;2023-10-31T06:27:14;15.90;76.70
27266;DHT22;14766;51.380;13.762;2023-10-31T06:29:41;15.90;76.60
27266;DHT22;14766;51.380;13.762;2023-10-31T06:32:27;15.80;76.40
27266;DHT22;14766;51.380;13.762;2023-10-31T06:34:54;15.90;76.40
27266;DHT22;14766;51.380;13.762;2023-10-31T06:37:21;15.90;76.10
27266;DHT22;14766;51.380;13.762;2023-10-31T06:39:48;15.90;76.00
27266;DHT22;14766;51.380;13.762;2023-10-31T06:42:15;15.90;75.50
27266;DHT22;14766;51.380;13.762;2023-10-31T06:44:42;15.90;75.60
27266;DHT22;14766;51.380;13.762;2023-10-31T06:47:09;15.90;75.70
27266;DHT22;14766;51.380;13.762;2023-10-31T06:49:36;15.90;75.70
27266;DHT22;14766;51.380;13.762;2023-10-31T06:52:05;15.90;75.20
27266;DHT22;14766;51.380;13.762;2023-10-31T06:54:32;15.90;74.70
27266;DHT22;14766;51.380;13.762;2023-10-31T06:56:59;15.90;74.70
27266;DHT22;14766;51.380;13.762;2023-10-31T06:59:28;15.90;74.30
27266;DHT22;14766;51.380;13.762;2023-10-31T07:01:56;15.90;74.30
27266;DHT22;14766;51.380;13.762;2023-10-31T07:04:23;16.00;73.70
27266;DHT22;14766;51.380;13.762;2023-10-31T07:06:50;15.90;72.80
27266;DHT22;14766;51.380;13.762;2023-10-31T07:09:26;16.00;73.00
27266;DHT22;14766;51.380;13.762;2023-10-31T07:11:53;16.00;72.60
27266;DHT22;14766;51.380;13.762;2023-10-31T07:14:20;16.00;72.20
27266;DHT22;14766;51.380;13.762;2023-10-31T07:16:48;16.00;71.60
27266;DHT22;14766;51.380;13.762;2023-10-31T07:19:15;16.00;71.20
27266;DHT22;14766;51.380;13.762;2023-10-31T07:21:43;16.00;71.00
27266;DHT22;14766;51.380;13.762;2023-10-31T07:24:10;16.00;71.00
27266;DHT22;14766;51.380;13.762;2023-10-31T07:26:38;16.00;71.00
27266;DHT22;14766;51.380;13.762;2023-10-31T07:29:05;16.00;70.60
27266;DHT22;14766;51.380;13.762;2023-10-31T07:31:32;16.00;70.30
27266;DHT22;14766;51.380;13.762;2023-10-31T07:33:59;16.00;69.80
27266;DHT22;14766;51.380;13.762;2023-10-31T07:36:27;16.00;69.70
27266;DHT22;14766;51.380;13.762;2023-10-31T07:38:54;16.00;69.90
27266;DHT22;14766;51.380;13.762;2023-10-31T07:41:21;16.00;69.60
27266;DHT22;14766;51.380;13.762;2023-10-31T07:43:48;16.00;69.20
27266;DHT22;14766;51.380;13.762;2023-10-31T07:46:16;16.00;67.80
27266;DHT22;14766;51.380;13.762;2023-10-31T07:48:43;16.00;68.20
27266;DHT22;14766;51.380;13.762;2023-10-31T07:51:10;16.00;67.60
27266;DHT22;14766;51.380;13.762;2023-10-31T07:53:37;16.00;67.90
27266;DHT22;14766;51.380;13.762;2023-10-31T07:56:04;16.00;67.80
27266;DHT22;14766;51.380;13.762;2023-10-31T07:58:32;16.00;67.70
27266;DHT22;14766;51.380;13.762;2023-10-31T08:00:59;16.00;67.40
27266;DHT22;14766;51.380;13.762;2023-10-31T08:03:26;16.00;67.40
27266;DHT22;14766;51.380;13.762;2023-10-31T08:05:53;16.10;67.10
27266;DHT22;14766;51.380;13.762;2023-10-31T08:08:20;16.10;66.80
27266;DHT22;14766;51.380;13.762;2023-10-31T08:10:47;16.10;66.50
27266;DHT22;14766;51.380;13.762;2023-10-31T08:13:14;16.10;66.40
27266;DHT22;14766;51.380;13.762;2023-10-31T08:15:41;16.20;66.80
27266;DHT22;14766;51.380;13.762;2023-10-31T08:18:08;16.30;66.60
27266;DHT22;14766;51.380;13.762;2023-10-31T08:20:35;16.40;66.10
27266;DHT22;14766;51.380;13.762;2023-10-31T08:23:03;16.60;64.60
27266;DHT22;14766;51.380;13.762;2023-10-31T08:25:30;16.70;63.60
27266;DHT22;14766;51.380;13.762;2023-10-31T08:27:57;16.80;63.90
27266;DHT22;14766;51.380;13.762;2023-10-31T08:30:24;16.80;63.50
27266;DHT22;14766;51.380;13.762;2023-10-31T08:32:51;16.90;63.10
27266;DHT22;14766;51.380;13.762;2023-10-31T08:35:19;16.90;63.00
27266;DHT22;14766;51.380;13.762;2023-10-31T08:37:46;16.90;62.50
27266;DHT22;14766;51.380;13.762;2023-10-31T08:40:13;16.80;62.40
27266;DHT22;14766;51.380;13.762;2023-10-31T08:42:41;16.70;62.50
27266;DHT22;14766;51.380;13.762;2023-10-31T08:45:08;16.70;63.20
27266;DHT22;14766;51.380;13.762;2023-10-31T08:47:35;16.60;63.10
27266;DHT22;14766;51.380;13.762;2023-10-31T08:50:02;16.70;64.20
27266;DHT22;14766;51.380;13.762;2023-10-31T08:52:30;16.90;62.50
27266;DHT22;14766;51.380;13.762;2023-10-31T08:54:56;17.00;62.20
27266;DHT22;14766;51.380;13.762;2023-10-31T08:57:23;17.30;60.30
27266;DHT22;14766;51.380;13.762;2023-10-31T08:59:50;17.50;60.10
27266;DHT22;14766;51.380;13.762;2023-10-31T09:02:18;17.70;59.70
27266;DHT22;14766;51.380;13.762;2023-10-31T09:04:46;18.00;60.20
27266;DHT22;14766;51.380;13.762;2023-10-31T09:07:14;18.40;59.30
27266;DHT22;14766;51.380;13.762;2023-10-31T09:09:41;18.80;56.50
27266;DHT22;14766;51.380;13.762;2023-10-31T09:12:08;19.10;55.10
27266;DHT22;14766;51.380;13.762;2023-10-31T09:14:35;19.40;54.10
27266;DHT22;14766;51.380;13.762;2023-10-31T09:17:03;19.60;53.50
27266;DHT22;14766;51.380;13.762;2023-10-31T09:19:31;19.60;52.50
27266;DHT22;14766;51.380;13.762;2023-10-31T09:21:58;19.60;52.00
27266;DHT22;14766;51.380;13.762;2023-10-31T09:24:25;19.50;52.00
27266;DHT22;14766;51.380;13.762;2023-10-31T09:26:52;19.30;51.60
27266;DHT22;14766;51.380;13.762;2023-10-31T09:29:19;19.10;52.70
27266;DHT22;14766;51.380;13.762;2023-10-31T09:31:56;19.00;53.20
27266;DHT22;14766;51.380;13.762;2023-10-31T09:34:24;19.00;53.20
27266;DHT22;14766;51.380;13.762;2023-10-31T09:36:51;19.10;53.20
27266;DHT22;14766;51.380;13.762;2023-10-31T09:39:18;19.20;53.40
27266;DHT22;14766;51.380;13.762;2023-10-31T09:41:47;19.30;52.80
27266;DHT22;14766;51.380;13.762;2023-10-31T09:44:18;19.50;52.30
27266;DHT22;14766;51.380;13.762;2023-10-31T09:46:47;19.50;51.90
27266;DHT22;14766;51.380;13.762;2023-10-31T09:49:16;19.60;52.00
27266;DHT22;14766;51.380;13.762;2023-10-31T09:51:43;19.70;53.00
27266;DHT22;14766;51.380;13.762;2023-10-31T09:54:12;19.80;53.00
27266;DHT22;14766;51.380;13.762;2023-10-31T09:56:42;20.10;53.30
27266;DHT22;14766;51.380;13.762;2023-10-31T09:59:10;20.30;52.70
27266;DHT22;14766;51.380;13.762;2023-10-31T10:01:37;20.60;49.10
27266;DHT22;14766;51.380;13.762;2023-10-31T10:04:05;20.80;49.80
27266;DHT22;14766;51.380;13.762;2023-10-31T10:06:32;21.00;48.00
27266;DHT22;14766;51.380;13.762;2023-10-31T10:08:59;21.20;49.40
27266;DHT22;14766;51.380;13.762;2023-10-31T10:11:28;21.30;48.00
27266;DHT22;14766;51.380;13.762;2023-10-31T10:13:57;21.40;47.00
27266;DHT22;14766;51.380;13.762;2023-10-31T10:16:30;21.50;45.90
27266;DHT22;14766;51.380;13.762;2023-10-31T10:19:20;21.60;46.60
27266;DHT22;14766;51.380;13.762;2023-10-31T10:21:52;21.50;45.30
27266;DHT22;14766;51.380;13.762;2023-10-31T10:24:21;21.40;46.30
27266;DHT22;14766;51.380;13.762;2023-10-31T10:26:49;21.30;46.40
27266;DHT22;14766;51.380;13.762;2023-10-31T10:29:17;21.10;46.20
27266;DHT22;14766;51.380;13.762;2023-10-31T10:31:44;20.90;45.80
27266;DHT22;14766;51.380;13.762;2023-10-31T10:34:16;20.60;46.90
27266;DHT22;14766;51.380;13.762;2023-10-31T10:36:47;20.30;47.60
27266;DHT22;14766;51.380;13.762;2023-10-31T10:39:22;20.00;48.40
27266;DHT22;14766;51.380;13.762;2023-10-31T10:41:53;19.80;48.70
27266;DHT22;14766;51.380;13.762;2023-10-31T10:44:34;19.60;49.70
27266;DHT22;14766;51.380;13.762;2023-10-31T10:47:04;19.40;50.20
27266;DHT22;14766;51.380;13.762;2023-10-31T10:49:33;19.20;50.70
27266;DHT22;14766;51.380;13.762;2023-10-31T10:52:27;19.10;51.10
27266;DHT22;14766;51.380;13.762;2023-10-31T10:55:08;18.90;51.50
27266;DHT22;14766;51.380;13.762;2023-10-31T10:57:46;18.80;51.60
27266;DHT22;14766;51.380;13.762;2023-10-31T11:00:14;18.60;52.00
27266;DHT22;14766;51.380;13.762;2023-10-31T11:02:43;18.50;52.50
27266;DHT22;14766;51.380;13.762;2023-10-31T11:05:10;18.40;53.00
27266;DHT22;14766;51.380;13.762;2023-10-31T11:07:38;18.40;53.70
27266;DHT22;14766;51.380;13.762;2023-10-31T11:10:06;18.20;53.80
27266;DHT22;14766;51.380;13.762;2023-10-31T11:12:33;18.10;54.20
27266;DHT22;14766;51.380;13.762;2023-10-31T11:15:02;18.10;54.60
27266;DHT22;14766;51.380;13.762;2023-10-31T11:17:39;18.00;54.90
27266;DHT22;14766;51.380;13.762;2023-10-31T11:20:09;18.00;56.10
27266;DHT22;14766;51.380;13.762;2023-10-31T11:22:40;17.90;55.40
27266;DHT22;14766;51.380;13.762;2023-10-31T11:25:09;17.80;55.60
27266;DHT22;14766;51.380;13.762;2023-10-31T11:27:50;17.80;55.80
27266;DHT22;14766;51.380;13.762;2023-10-31T11:30:30;17.70;55.80
27266;DHT22;14766;51.380;13.762;2023-10-31T11:32:58;17.70;55.80
27266;DHT22;14766;51.380;13.762;2023-10-31T11:35:29;17.70;55.70
27266;DHT22;14766;51.380;13.762;2023-10-31T11:38:04;17.70;55.20
27266;DHT22;14766;51.380;13.762;2023-10-31T11:40:31;17.70;55.50
27266;DHT22;14766;51.380;13.762;2023-10-31T11:43:04;17.70;54.70
27266;DHT22;14766;51.380;13.762;2023-10-31T11:45:37;17.80;54.80
27266;DHT22;14766;51.380;13.762;2023-10-31T11:48:08;17.80;55.30
27266;DHT22;14766;51.380;13.762;2023-10-31T11:50:38;17.80;55.00
27266;DHT22;14766;51.380;13.762;2023-10-31T11:53:14;17.80;54.70
27266;DHT22;14766;51.380;13.762;2023-10-31T11:55:46;17.80;54.10
27266;DHT22;14766;51.380;13.762;2023-10-31T11:58:14;17.80;54.30
27266;DHT22;14766;51.380;13.762;2023-10-31T12:00:43;17.80;54.10
27266;DHT22;14766;51.380;13.762;2023-10-31T12:03:12;17.80;54.50
27266;DHT22;14766;51.380;13.762;2023-10-31T12:05:39;17.70;53.70
27266;DHT22;14766;51.380;13.762;2023-10-31T12:08:06;17.70;53.50
27266;DHT22;14766;51.380;13.762;2023-10-31T12:10:34;17.70;53.50
27266;DHT22;14766;51.380;13.762;2023-10-31T12:13:01;17.60;53.60
27266;DHT22;14766;51.380;13.762;2023-10-31T12:15:29;17.60;53.60
27266;DHT22;14766;51.380;13.762;2023-10-31T12:18:00;17.50;53.60
27266;DHT22;14766;51.380;13.762;2023-10-31T12:20:27;17.50;53.60
27266;DHT22;14766;51.380;13.762;2023-10-31T12:23:02;17.40;53.90
27266;DHT22;14766;51.380;13.762;2023-10-31T12:25:31;17.40;54.20
27266;DHT22;14766;51.380;13.762;2023-10-31T12:28:03;17.40;54.50
27266;DHT22;14766;51.380;13.762;2023-10-31T12:30:30;17.50;54.70
27266;DHT22;14766;51.380;13.762;2023-10-31T12:32:57;17.40;54.30
27266;DHT22;14766;51.380;13.762;2023-10-31T12:35:25;17.40;54.70
27266;DHT22;14766;51.380;13.762;2023-10-31T12:37:53;17.40;55.30
27266;DHT22;14766;51.380;13.762;2023-10-31T12:40:21;17.40;54.70
27266;DHT22;14766;51.380;13.762;2023-10-31T12:42:49;17.30;54.80
27266;DHT22;14766;51.380;13.762;2023-10-31T12:45:18;17.30;55.00
27266;DHT22;14766;51.380;13.762;2023-10-31T12:48:03;17.30;54.70
27266;DHT22;14766;51.380;13.762;2023-10-31T12:50:34;17.30;55.00
27266;DHT22;14766;51.380;13.762;2023-10-31T12:53:04;17.30;55.10
27266;DHT22;14766;51.380;13.762;2023-10-31T12:55:41;17.30;55.30
27266;DHT22;14766;51.380;13.762;2023-10-31T12:58:09;17.20;55.40
27266;DHT22;14766;51.380;13.762;2023-10-31T13:00:46;17.20;55.30
27266;DHT22;14766;51.380;13.762;2023-10-31T13:03:14;17.20;55.20
27266;DHT22;14766;51.380;13.762;2023-10-31T13:05:42;17.20;55.40
27266;DHT22;14766;51.380;13.762;2023-10-31T13:08:14;17.20;55.20
27266;DHT22;14766;51.380;13.762;2023-10-31T13:10:43;17.10;55.20
27266;DHT22;14766;51.380;13.762;2023-10-31T13:13:10;17.20;55.60
27266;DHT22;14766;51.380;13.762;2023-10-31T13:15:39;17.10;55.20
27266;DHT22;14766;51.380;13.762;2023-10-31T13:18:06;17.10;55.30
27266;DHT22;14766;51.380;13.762;2023-10-31T13:20:34;17.10;55.30
27266;DHT22;14766;51.380;13.762;2023-10-31T13:23:01;17.10;55.50
27266;DHT22;14766;51.380;13.762;2023-10-31T13:25:30;17.10;55.80
27266;DHT22;14766;51.380;13.762;2023-10-31T13:27:58;17.10;55.90
27266;DHT22;14766;51.380;13.762;2023-10-31T13:30:25;17.10;55.90
27266;DHT22;14766;51.380;13.762;2023-10-31T13:32:52;17.00;56.20
27266;DHT22;14766;51.380;13.762;2023-10-31T13:35:20;17.00;57.40
27266;DHT22;14766;51.380;13.762;2023-10-31T13:37:47;17.00;58.70
27266;DHT22;14766;51.380;13.762;2023-10-31T13:40:14;16.90;59.50
27266;DHT22;14766;51.380;13.762;2023-10-31T13:42:41;16.90;61.00
27266;DHT22;14766;51.380;13.762;2023-10-31T13:45:09;16.90;61.10
27266;DHT22;14766;51.380;13.762;2023-10-31T13:47:37;16.80;61.30
27266;DHT22;14766;51.380;13.762;2023-10-31T13:50:05;16.70;61.90
27266;DHT22;14766;51.380;13.762;2023-10-31T13:52:34;16.70;62.10
27266;DHT22;14766;51.380;13.762;2023-10-31T13:55:01;16.70;62.00
27266;DHT22;14766;51.380;13.762;2023-10-31T13:57:28;16.60;61.90
27266;DHT22;14766;51.380;13.762;2023-10-31T13:59:55;16.60;62.10
27266;DHT22;14766;51.380;13.762;2023-10-31T14:02:22;16.60;61.70
27266;DHT22;14766;51.380;13.762;2023-10-31T14:04:49;16.50;61.60
27266;DHT22;14766;51.380;13.762;2023-10-31T14:07:22;16.50;61.40
27266;DHT22;14766;51.380;13.762;2023-10-31T14:09:52;16.60;60.90
27266;DHT22;14766;51.380;13.762;2023-10-31T14:12:20;16.50;60.90
27266;DHT22;14766;51.380;13.762;2023-10-31T14:14:47;16.50;60.80
27266;DHT22;14766;51.380;13.762;2023-10-31T14:17:16;16.50;61.70
27266;DHT22;14766;51.380;13.762;2023-10-31T14:19:44;16.50;60.80
27266;DHT22;14766;51.380;13.762;2023-10-31T14:22:14;16.60;60.40
27266;DHT22;14766;51.380;13.762;2023-10-31T14:24:41;16.60;60.20
27266;DHT22;14766;51.380;13.762;2023-10-31T14:27:08;16.60;60.20
27266;DHT22;14766;51.380;13.762;2023-10-31T14:29:35;16.60;60.20
27266;DHT22;14766;51.380;13.762;2023-10-31T14:32:07;16.60;60.00
27266;DHT22;14766;51.380;13.762;2023-10-31T14:34:35;16.60;59.20
27266;DHT22;14766;51.380;13.762;2023-10-31T14:37:02;16.60;59.30
27266;DHT22;14766;51.380;13.762;2023-10-31T14:39:30;16.60;59.00
27266;DHT22;14766;51.380;13.762;2023-10-31T14:41:57;16.50;59.10
27266;DHT22;14766;51.380;13.762;2023-10-31T14:44:24;16.50;58.90
27266;DHT22;14766;51.380;13.762;2023-10-31T14:46:51;16.50;58.70
27266;DHT22;14766;51.380;13.762;2023-10-31T14:49:20;16.50;58.80
27266;DHT22;14766;51.380;13.762;2023-10-31T14:51:47;16.50;58.90
27266;DHT22;14766;51.380;13.762;2023-10-31T14:54:14;16.50;58.60
27266;DHT22;14766;51.380;13.762;2023-10-31T14:56:41;16.50;58.70
27266;DHT22;14766;51.380;13.762;2023-10-31T14:59:09;16.50;58.30
27266;DHT22;14766;51.380;13.762;2023-10-31T15:01:36;16.50;58.70
27266;DHT22;14766;51.380;13.762;2023-10-31T15:04:03;16.50;58.40
27266;DHT22;14766;51.380;13.762;2023-10-31T15:06:30;16.50;58.40
27266;DHT22;14766;51.380;13.762;2023-10-31T15:08:58;16.50;58.30
27266;DHT22;14766;51.380;13.762;2023-10-31T15:11:28;16.50;58.20
27266;DHT22;14766;51.380;13.762;2023-10-31T15:13:55;16.50;58.20
27266;DHT22;14766;51.380;13.762;2023-10-31T15:16:22;16.40;58.30
27266;DHT22;14766;51.380;13.762;2023-10-31T15:18:50;16.40;58.40
27266;DHT22;14766;51.380;13.762;2023-10-31T15:21:17;16.40;58.20